Time;durP1;ratioP1;P1;durP2;ratioP2;P2;SDS_P1;SDS_P2;PMS_P1;PMS_P2;Temp;Humidity;BMP_temperature;BMP_pressure;BME280_temperature;BME280_humidity;BME280_pressure;Samples;Min_cycle;Max_cycle;Signal;HPM_P1;HPM_P2
2022/01/26 00:00:57;;;;;;;328.85;140.80;;;0.90;99.90;;;;;;5138282;27;20023;-51
2022/01/26 00:06:21;;;;;;;342.10;147.73;;;0.80;99.90;;;;;;5138285;27;20491;-52
2022/01/26 00:08:48;;;;;;;360.98;148.63;;;0.90;99.90;;;;;;5138224;27;20441;-51
2022/01/26 00:11:14;;;;;;;456.15;169.45;;;0.90;99.90;;;;;;5138180;27;20110;-51
2022/01/26 00:13:40;;;;;;;451.42;171.93;;;0.90;99.90;;;;;;5138142;27;20069;-52
2022/01/26 00:16:11;;;;;;;435.35;171.05;;;0.90;99.90;;;;;;5138066;27;20500;-51
2022/01/26 00:18:38;;;;;;;407.85;170.25;;;0.90;99.90;;;;;;5137941;27;20391;-51
2022/01/26 00:21:27;;;;;;;445.45;173.98;;;0.90;99.90;;;;;;5137838;27;20125;-51
2022/01/26 00:26:31;;;;;;;422.83;177.93;;;1.00;99.90;;;;;;5137884;27;20039;-51
2022/01/26 00:29:13;;;;;;;382.27;159.30;;;1.00;99.90;;;;;;5137781;27;20015;-51
2022/01/26 00:40:12;;;;;;;408.83;169.20;;;0.90;99.90;;;;;;5137460;27;20373;-51
2022/01/26 00:42:40;;;;;;;401.73;170.00;;;0.90;99.90;;;;;;5137448;27;20102;-51
2022/01/26 00:45:08;;;;;;;509.23;207.55;;;1.00;99.90;;;;;;5137538;27;20039;-51
2022/01/26 00:47:34;;;;;;;529.45;215.90;;;1.00;99.90;;;;;;5137441;27;20118;-51
2022/01/26 00:50:05;;;;;;;543.35;231.10;;;1.10;99.90;;;;;;5137158;27;20377;-51
2022/01/26 00:52:40;;;;;;;;;;;1.10;99.90;;;;;;5137652;27;20031;-51
2022/01/26 00:55:07;;;;;;;542.70;231.35;;;1.10;99.90;;;;;;5137294;27;20383;-52
2022/01/26 00:57:33;;;;;;;564.97;248.30;;;1.10;99.90;;;;;;5137146;27;20089;-51
2022/01/26 01:00:00;;;;;;;633.00;278.48;;;1.20;99.90;;;;;;5137158;27;20075;-51
2022/01/26 01:02:30;;;;;;;537.75;232.10;;;1.10;99.90;;;;;;5137365;27;20042;-51
2022/01/26 01:04:58;;;;;;;517.87;218.13;;;1.00;99.90;;;;;;5136918;27;20453;-51
2022/01/26 01:07:25;;;;;;;539.40;221.45;;;1.00;99.90;;;;;;5137047;27;20031;-51
2022/01/26 01:09:54;;;;;;;504.35;214.25;;;1.00;99.90;;;;;;5136999;27;20023;-51
2022/01/26 01:12:21;;;;;;;458.15;197.70;;;1.00;99.90;;;;;;5136961;27;20035;-51
2022/01/26 01:14:47;;;;;;;430.95;182.68;;;1.10;99.90;;;;;;5136996;27;20031;-51
2022/01/26 01:17:22;;;;;;;433.65;182.60;;;1.10;99.90;;;;;;5136796;27;20027;-52
2022/01/26 01:20:09;;;;;;;419.73;180.55;;;1.00;99.90;;;;;;5136741;27;20031;-51
2022/01/26 01:35:40;;;;;;;411.83;170.10;;;1.00;99.90;;;;;;5118185;27;20047;-52
2022/01/26 01:38:12;;;;;;;363.60;151.27;;;1.00;99.90;;;;;;5136500;27;20027;-52
2022/01/26 01:40:41;;;;;;;354.92;147.90;;;1.00;99.90;;;;;;5136330;27;20031;-52
2022/01/26 01:43:08;;;;;;;358.58;147.48;;;0.90;99.90;;;;;;5136307;27;20026;-51
2022/01/26 01:45:47;;;;;;;391.60;163.77;;;0.90;99.90;;;;;;5136318;27;20095;-52
2022/01/26 01:48:18;;;;;;;452.92;184.25;;;0.90;99.90;;;;;;5136235;27;20027;-51
2022/01/26 01:50:45;;;;;;;485.60;198.15;;;1.00;99.90;;;;;;5136248;27;20115;-51
2022/01/26 01:53:13;;;;;;;444.48;182.02;;;1.00;99.90;;;;;;5136086;27;20066;-52
2022/01/26 01:55:42;;;;;;;417.75;173.45;;;0.90;99.90;;;;;;5136160;27;20035;-52
2022/01/26 01:58:09;;;;;;;358.27;152.10;;;0.90;99.90;;;;;;5136019;27;20055;-51
2022/01/26 02:00:36;;;;;;;352.42;150.88;;;1.00;99.90;;;;;;5135907;27;20110;-51
2022/01/26 02:03:03;;;;;;;348.92;148.57;;;0.90;99.90;;;;;;5136086;27;20019;-51
2022/01/26 02:05:29;;;;;;;323.60;141.90;;;0.90;99.90;;;;;;5135794;27;20031;-51
2022/01/26 02:07:55;;;;;;;320.88;136.98;;;0.90;99.90;;;;;;5135984;27;20045;-52
2022/01/26 02:10:23;;;;;;;336.10;139.82;;;0.80;99.90;;;;;;5135438;27;20088;-51
2022/01/26 02:13:00;;;;;;;313.25;138.10;;;0.80;99.90;;;;;;5135886;27;20102;-51
2022/01/26 02:15:36;;;;;;;309.98;134.05;;;0.80;99.90;;;;;;5135623;27;20539;-51
2022/01/26 02:18:36;;;;;;;315.40;136.07;;;0.90;99.90;;;;;;5135610;27;20019;-51
2022/01/26 02:51:22;;;;;;;374.33;158.98;;;0.80;99.90;;;;;;5135087;28;20043;-51
2022/01/26 02:54:26;;;;;;;367.27;156.98;;;0.70;99.90;;;;;;5135307;27;20023;-51
2022/01/26 02:59:47;;;;;;;380.50;161.68;;;0.70;99.90;;;;;;5135141;28;20035;-51
2022/01/26 03:02:23;;;;;;;373.67;161.45;;;0.70;99.90;;;;;;5135182;27;20039;-51
2022/01/26 03:04:53;;;;;;;381.02;161.50;;;0.70;99.90;;;;;;5135247;27;20028;-51
2022/01/26 03:07:37;;;;;;;354.60;155.00;;;0.70;99.90;;;;;;5135334;27;20078;-51
2022/01/26 03:10:14;;;;;;;344.90;147.85;;;0.60;99.90;;;;;;5135209;27;20027;-51
2022/01/26 03:12:56;;;;;;;340.90;147.98;;;0.70;99.90;;;;;;5135176;28;20503;-51
2022/01/26 03:15:28;;;;;;;334.52;147.05;;;0.80;99.90;;;;;;5135174;27;20103;-51
2022/01/26 03:18:21;;;;;;;341.13;149.73;;;0.70;99.90;;;;;;5135019;27;20031;-51
2022/01/26 03:20:47;;;;;;;327.55;141.00;;;0.70;99.90;;;;;;5134960;28;20043;-51
2022/01/26 03:28:58;;;;;;;308.98;139.05;;;0.70;99.90;;;;;;5122623;27;20527;-51
2022/01/26 03:31:50;;;;;;;310.25;135.70;;;0.70;99.90;;;;;;5138869;27;20074;-51
2022/01/26 03:34:18;;;;;;;316.55;141.07;;;0.60;99.90;;;;;;5138903;27;20411;-51
2022/01/26 03:39:16;;;;;;;324.60;143.23;;;0.60;99.90;;;;;;5138852;27;20035;-51
2022/01/26 03:42:24;;;;;;;335.88;143.63;;;0.60;99.90;;;;;;5138549;27;20126;-51
2022/01/26 03:44:32;;;;;;;334.73;141.80;;;0.70;99.90;;;;;;5127794;27;20082;-51
2022/01/26 03:46:58;;;;;;;327.80;140.15;;;0.80;99.90;;;;;;5138756;27;20030;-51
2022/01/26 03:49:25;;;;;;;324.40;140.98;;;0.80;99.90;;;;;;5138784;27;20520;-52
2022/01/26 03:51:51;;;;;;;318.00;139.52;;;0.70;99.90;;;;;;5138403;27;20039;-51
2022/01/26 03:54:19;;;;;;;322.48;141.77;;;0.70;99.90;;;;;;5138617;27;20033;-51
2022/01/26 03:56:45;;;;;;;310.20;136.98;;;0.70;99.90;;;;;;5138555;27;20023;-51
2022/01/26 03:59:11;;;;;;;302.75;136.32;;;0.70;99.90;;;;;;5138383;27;20353;-51
2022/01/26 04:01:38;;;;;;;303.30;135.85;;;0.70;99.90;;;;;;5138565;27;20033;-51
2022/01/26 04:04:05;;;;;;;298.70;129.75;;;0.60;99.90;;;;;;5138285;27;20023;-52
2022/01/26 04:06:33;;;;;;;301.23;133.20;;;0.60;99.90;;;;;;5138472;27;20020;-52
2022/01/26 04:09:00;;;;;;;330.60;141.57;;;0.50;99.90;;;;;;5138744;27;20099;-51
2022/01/26 04:11:34;;;;;;;327.92;141.23;;;0.60;99.90;;;;;;5138213;27;20037;-51
2022/01/26 04:14:04;;;;;;;309.58;133.90;;;0.60;99.90;;;;;;5138162;27;20035;-51
2022/01/26 04:16:30;;;;;;;292.08;133.70;;;0.70;99.90;;;;;;5137981;27;20043;-52
2022/01/26 04:18:57;;;;;;;302.67;131.30;;;0.70;99.90;;;;;;5138003;27;20039;-51
2022/01/26 04:21:41;;;;;;;301.92;134.48;;;0.70;99.90;;;;;;5138025;27;20027;-51
2022/01/26 04:26:54;;;;;;;304.58;134.30;;;0.70;99.90;;;;;;5137889;27;20030;-51
2022/01/26 04:29:26;;;;;;;320.02;139.55;;;0.80;99.90;;;;;;5137890;27;20494;-51
2022/01/26 04:31:52;;;;;;;328.70;144.02;;;0.60;99.90;;;;;;5138066;27;20419;-52
2022/01/26 04:34:18;;;;;;;332.15;141.77;;;0.60;99.90;;;;;;5137322;27;20031;-51
2022/01/26 04:36:59;;;;;;;312.73;136.18;;;0.70;99.90;;;;;;5137729;27;20043;-51
2022/01/26 04:39:33;;;;;;;304.38;133.43;;;0.60;99.90;;;;;;5137629;27;20031;-52
2022/01/26 04:42:08;;;;;;;284.83;128.27;;;0.70;99.90;;;;;;5137237;27;20396;-52
2022/01/26 04:44:41;;;;;;;305.80;128.30;;;0.80;99.90;;;;;;5137608;27;20031;-52
2022/01/26 04:47:07;;;;;;;291.52;126.60;;;0.80;99.90;;;;;;5137613;27;20035;-51
2022/01/26 04:49:34;;;;;;;295.35;128.75;;;0.80;99.90;;;;;;5137200;27;20019;-52
2022/01/26 04:52:01;;;;;;;286.50;126.90;;;0.70;99.90;;;;;;5137319;27;20027;-52
2022/01/26 04:54:27;;;;;;;284.38;127.47;;;0.80;99.90;;;;;;5136139;27;20032;-51
2022/01/26 04:56:53;;;;;;;299.92;129.98;;;0.80;99.90;;;;;;5137309;27;20372;-51
2022/01/26 04:59:19;;;;;;;309.25;135.27;;;0.80;99.90;;;;;;5137223;27;20037;-51
2022/01/26 05:01:44;;;;;;;322.55;143.95;;;0.80;99.90;;;;;;5137107;27;20025;-52
2022/01/26 05:04:10;;;;;;;328.08;140.98;;;0.80;99.90;;;;;;5137139;27;20030;-51
2022/01/26 05:06:36;;;;;;;331.08;139.52;;;0.70;99.90;;;;;;5137054;27;20015;-52
2022/01/26 05:09:04;;;;;;;304.70;134.95;;;0.70;99.90;;;;;;5137106;27;20476;-51
2022/01/26 05:11:35;;;;;;;303.95;134.73;;;0.70;99.90;;;;;;5137010;27;20035;-51
2022/01/26 05:14:01;;;;;;;302.65;132.82;;;0.70;99.90;;;;;;5137079;27;20361;-52
2022/01/26 05:16:28;;;;;;;294.10;129.43;;;0.70;99.90;;;;;;5136782;27;20050;-51
2022/01/26 05:18:54;;;;;;;294.25;123.82;;;0.60;99.90;;;;;;5137010;27;20023;-52
2022/01/26 05:21:22;;;;;;;287.13;125.18;;;0.60;99.90;;;;;;5136795;27;20030;-52
2022/01/26 05:23:48;;;;;;;288.40;124.72;;;0.60;99.90;;;;;;5136836;27;20487;-52
2022/01/26 05:26:14;;;;;;;282.83;123.40;;;0.50;99.90;;;;;;5136678;27;20019;-51
2022/01/26 05:28:40;;;;;;;272.23;121.68;;;0.50;99.90;;;;;;5136586;27;20468;-52
2022/01/26 05:31:11;;;;;;;;;;;0.50;99.90;;;;;;5136983;27;20376;-52
2022/01/26 05:33:37;;;;;;;289.95;124.25;;;0.50;99.90;;;;;;5136570;27;19907;-52
2022/01/26 05:36:04;;;;;;;298.27;132.73;;;0.50;99.90;;;;;;5136730;27;20035;-51
2022/01/26 05:38:30;;;;;;;282.65;124.50;;;0.60;99.90;;;;;;5136511;27;20034;-52
2022/01/26 05:40:58;;;;;;;289.35;127.60;;;0.60;99.90;;;;;;5136120;27;20031;-52
2022/01/26 05:43:24;;;;;;;290.23;126.85;;;0.70;99.90;;;;;;5136331;27;20045;-51
2022/01/26 05:45:54;;;;;;;282.92;125.53;;;0.70;99.90;;;;;;5135659;27;20418;-52
2022/01/26 05:48:20;;;;;;;293.30;128.63;;;0.70;99.90;;;;;;5136432;27;20023;-52
2022/01/26 05:50:52;;;;;;;325.20;136.52;;;0.80;99.90;;;;;;5136009;27;20290;-52
2022/01/26 05:53:21;;;;;;;294.65;127.95;;;0.80;99.90;;;;;;5136115;27;20456;-51
2022/01/26 05:55:53;;;;;;;272.92;117.72;;;0.80;99.90;;;;;;5136271;27;20031;-52
2022/01/26 05:58:19;;;;;;;239.68;103.82;;;0.80;99.90;;;;;;5136155;27;20039;-52
2022/01/26 06:00:45;;;;;;;227.43;102.35;;;0.70;99.90;;;;;;5135956;27;20140;-51
2022/01/26 06:03:11;;;;;;;220.98;96.25;;;0.70;99.90;;;;;;5136103;27;20125;-51
2022/01/26 06:05:37;;;;;;;206.10;90.82;;;0.70;99.90;;;;;;5135851;27;20019;-51
2022/01/26 06:08:04;;;;;;;212.82;93.97;;;0.70;99.90;;;;;;5135965;27;20035;-51
2022/01/26 06:10:30;;;;;;;211.20;93.85;;;0.60;99.90;;;;;;5135869;27;20027;-51
2022/01/26 06:12:56;;;;;;;206.75;92.43;;;0.60;99.90;;;;;;5135880;27;20031;-51
2022/01/26 06:15:21;;;;;;;219.10;95.55;;;0.60;99.90;;;;;;5135874;27;20035;-52
2022/01/26 06:17:48;;;;;;;220.85;96.97;;;0.40;99.90;;;;;;5132755;27;20127;-52
2022/01/26 06:20:14;;;;;;;222.82;96.72;;;0.50;99.90;;;;;;5122972;27;20035;-52
2022/01/26 06:22:40;;;;;;;228.57;98.97;;;0.50;99.90;;;;;;5115441;28;20028;-51
2022/01/26 06:25:08;;;;;;;224.60;99.25;;;0.60;99.90;;;;;;5123888;27;20538;-52
2022/01/26 06:27:36;;;;;;;227.75;101.00;;;0.60;99.90;;;;;;5131847;27;20023;-51
2022/01/26 06:30:06;;;;;;;222.82;101.13;;;0.60;99.90;;;;;;5134822;27;20084;-52
2022/01/26 06:32:33;;;;;;;243.50;107.00;;;0.60;99.90;;;;;;5122166;27;20023;-52
2022/01/26 06:34:59;;;;;;;230.68;102.90;;;0.60;99.90;;;;;;5134566;27;20462;-52
2022/01/26 06:37:25;;;;;;;237.15;102.13;;;0.70;99.90;;;;;;5119085;27;20027;-52
2022/01/26 06:39:51;;;;;;;237.63;102.43;;;0.70;99.90;;;;;;5125387;27;20558;-52
2022/01/26 06:42:22;;;;;;;261.48;106.57;;;0.80;99.90;;;;;;5113588;28;20076;-51
2022/01/26 06:44:56;;;;;;;306.60;118.55;;;0.80;99.90;;;;;;5121900;27;20061;-52
2022/01/26 06:49:51;;;;;;;264.27;113.80;;;0.80;99.90;;;;;;5123479;28;20054;-52
2022/01/26 06:52:17;;;;;;;290.27;127.93;;;0.80;99.90;;;;;;5130019;27;20027;-52
2022/01/26 06:54:43;;;;;;;265.55;125.07;;;0.80;99.90;;;;;;5123800;28;20542;-52
2022/01/26 06:57:10;;;;;;;268.77;120.90;;;0.80;99.90;;;;;;5130249;27;20031;-51
2022/01/26 06:59:37;;;;;;;238.82;110.85;;;0.80;99.90;;;;;;5139499;27;20026;-52
2022/01/26 07:02:03;;;;;;;226.27;104.13;;;0.70;99.90;;;;;;5138940;27;20498;-51
2022/01/26 07:04:30;;;;;;;220.50;100.10;;;0.80;99.90;;;;;;5125053;27;20694;-51
2022/01/26 07:06:56;;;;;;;234.68;102.38;;;0.70;99.90;;;;;;5128042;27;20321;-52
2022/01/26 07:09:23;;;;;;;223.48;100.75;;;0.70;99.90;;;;;;5131463;27;20099;-51
2022/01/26 07:11:49;;;;;;;222.13;99.45;;;0.90;99.90;;;;;;5124999;27;20054;-51
2022/01/26 07:14:26;;;;;;;286.67;122.68;;;0.90;99.90;;;;;;5126589;27;20023;-52
2022/01/26 07:19:53;;;;;;;261.65;112.47;;;1.00;99.90;;;;;;5127441;27;20031;-52
2022/01/26 07:25:54;;;;;;;251.55;110.55;;;1.00;99.90;;;;;;5130356;27;20435;-51
2022/01/26 07:28:20;;;;;;;237.88;105.70;;;1.00;99.90;;;;;;5111005;28;20032;-52
2022/01/26 07:30:46;;;;;;;262.33;114.80;;;1.10;99.90;;;;;;5098645;28;20046;-52
2022/01/26 07:33:13;;;;;;;275.90;124.20;;;1.00;99.90;;;;;;5107722;28;20031;-52
2022/01/26 07:35:39;;;;;;;292.55;132.98;;;0.90;99.90;;;;;;5119003;28;20551;-52
2022/01/26 07:38:05;;;;;;;374.58;146.77;;;1.00;99.90;;;;;;5118725;27;20031;-52
2022/01/26 07:40:31;;;;;;;324.73;133.43;;;1.10;99.90;;;;;;5118604;28;20030;-52
2022/01/26 07:42:57;;;;;;;325.10;129.38;;;1.00;99.90;;;;;;5118607;28;20508;-52
2022/01/26 07:45:24;;;;;;;317.90;134.52;;;1.20;99.90;;;;;;5114879;28;20089;-52
2022/01/26 07:47:53;;;;;;;327.65;136.68;;;1.20;99.90;;;;;;5104746;28;20039;-52
2022/01/26 07:50:21;;;;;;;342.10;148.15;;;1.20;99.90;;;;;;5108111;28;20524;-52
2022/01/26 07:52:47;;;;;;;359.95;154.05;;;1.20;99.90;;;;;;5108201;28;20124;-52
2022/01/26 07:55:17;;;;;;;322.08;144.80;;;1.30;99.90;;;;;;5107995;28;20023;-52
2022/01/26 07:57:45;;;;;;;337.08;145.02;;;1.30;99.90;;;;;;5109230;28;20031;-52
2022/01/26 08:00:12;;;;;;;350.05;144.68;;;1.30;99.90;;;;;;5108147;28;20075;-52
2022/01/26 08:02:44;;;;;;;346.60;152.93;;;1.30;99.90;;;;;;5104374;28;20032;-52
2022/01/26 08:05:14;;;;;;;372.83;158.60;;;1.30;99.90;;;;;;5118285;28;20396;-52
2022/01/26 08:07:40;;;;;;;399.98;169.50;;;1.30;99.90;;;;;;5109782;28;20023;-52
2022/01/26 08:10:08;;;;;;;447.77;196.32;;;1.40;99.90;;;;;;5105225;28;20461;-52
2022/01/26 08:12:38;;;;;;;426.35;174.57;;;1.40;99.90;;;;;;5107452;28;20404;-52
2022/01/26 08:15:07;;;;;;;387.73;168.30;;;1.40;99.90;;;;;;5118180;28;20153;-52
2022/01/26 08:17:34;;;;;;;357.33;154.45;;;1.50;99.90;;;;;;5114993;28;20500;-52
2022/01/26 08:20:03;;;;;;;398.02;169.57;;;1.40;99.90;;;;;;5099154;28;20070;-52
2022/01/26 08:22:30;;;;;;;399.27;174.65;;;1.40;99.90;;;;;;5105432;28;20114;-52
2022/01/26 08:24:56;;;;;;;414.10;182.50;;;1.50;99.90;;;;;;5112156;28;20023;-52
2022/01/26 08:27:26;;;;;;;395.23;169.57;;;1.50;99.90;;;;;;5115946;28;20024;-52
2022/01/26 08:29:57;;;;;;;402.52;168.95;;;1.60;99.90;;;;;;5115737;28;20030;-52
2022/01/26 08:32:23;;;;;;;414.85;167.68;;;1.60;99.90;;;;;;5115497;28;20028;-52
2022/01/26 08:34:49;;;;;;;404.25;171.88;;;1.70;99.90;;;;;;5117540;28;20062;-52
2022/01/26 08:37:15;;;;;;;393.13;167.57;;;1.60;99.90;;;;;;5117152;28;20031;-52
2022/01/26 08:39:41;;;;;;;417.58;174.00;;;1.60;99.90;;;;;;5109623;28;20023;-52
2022/01/26 08:42:08;;;;;;;420.75;173.90;;;1.70;99.90;;;;;;5104721;28;20120;-52
2022/01/26 08:44:35;;;;;;;424.35;179.23;;;1.70;99.90;;;;;;5111900;28;20542;-52
2022/01/26 08:47:04;;;;;;;409.25;176.85;;;1.70;99.90;;;;;;5115385;28;20020;-52
2022/01/26 08:49:30;;;;;;;403.35;174.60;;;1.80;99.90;;;;;;5111030;28;20059;-52
2022/01/26 08:51:58;;;;;;;393.83;174.65;;;1.80;99.90;;;;;;5116016;28;20032;-52
2022/01/26 08:54:24;;;;;;;427.63;186.32;;;1.70;99.90;;;;;;5117392;28;20044;-52
2022/01/26 08:56:51;;;;;;;449.55;197.15;;;1.70;99.90;;;;;;5117432;28;20023;-52
2022/01/26 08:59:21;;;;;;;449.45;194.77;;;1.70;99.90;;;;;;5114807;28;20038;-52
2022/01/26 09:01:48;;;;;;;446.58;195.57;;;1.80;99.90;;;;;;5117218;28;20556;-52
2022/01/26 09:04:14;;;;;;;441.70;195.55;;;1.80;99.90;;;;;;5114544;28;20051;-52
2022/01/26 09:06:52;;;;;;;433.42;194.32;;;1.80;99.90;;;;;;5117250;28;20030;-52
2022/01/26 09:09:20;;;;;;;447.27;201.43;;;1.80;99.90;;;;;;5116810;28;20062;-52
2022/01/26 09:11:47;;;;;;;454.73;206.43;;;1.80;99.90;;;;;;5116260;28;20477;-52
2022/01/26 09:14:18;;;;;;;485.20;217.88;;;2.00;99.90;;;;;;5116406;28;20028;-52
2022/01/26 09:16:46;;;;;;;493.77;223.00;;;1.90;99.90;;;;;;5115121;28;20023;-52
2022/01/26 09:19:29;;;;;;;495.88;222.05;;;2.00;99.90;;;;;;5111393;28;20066;-52
2022/01/26 09:21:56;;;;;;;511.77;228.23;;;2.00;99.90;;;;;;5114132;28;20550;-52
2022/01/26 09:24:25;;;;;;;519.63;227.75;;;2.10;99.90;;;;;;5116124;28;20476;-52
2022/01/26 09:26:51;;;;;;;427.35;185.65;;;2.10;99.90;;;;;;5116115;28;20526;-52
2022/01/26 09:29:17;;;;;;;418.95;179.07;;;2.10;99.90;;;;;;5115830;28;20035;-52
2022/01/26 09:31:47;;;;;;;362.75;156.05;;;2.10;99.90;;;;;;5115914;28;20027;-52
2022/01/26 09:34:16;;;;;;;305.80;133.32;;;2.10;99.90;;;;;;5115599;28;20361;-52
2022/01/26 09:36:42;;;;;;;307.33;131.82;;;2.10;99.90;;;;;;5095443;28;20038;-52
2022/01/26 09:39:08;;;;;;;318.75;137.43;;;2.10;99.90;;;;;;5095392;28;20032;-52
2022/01/26 09:41:38;;;;;;;327.40;134.75;;;2.20;99.90;;;;;;5095108;28;20111;-51
2022/01/26 09:44:05;;;;;;;364.58;150.05;;;2.20;99.90;;;;;;5095334;28;20032;-52
2022/01/26 09:46:31;;;;;;;351.63;150.43;;;2.20;99.90;;;;;;5097580;28;20063;-52
2022/01/26 09:48:58;;;;;;;338.88;148.45;;;2.20;99.90;;;;;;5111794;27;20024;-52
2022/01/26 09:51:24;;;;;;;349.02;154.13;;;2.20;99.90;;;;;;5103096;28;20040;-52
2022/01/26 09:54:03;;;;;;;365.40;159.57;;;2.30;99.90;;;;;;5094772;28;20453;-52
2022/01/26 09:56:29;;;;;;;362.13;157.23;;;2.30;99.90;;;;;;5104184;28;20031;-52
2022/01/26 09:58:55;;;;;;;355.75;152.60;;;2.40;99.90;;;;;;5116349;28;20031;-52
2022/01/26 10:01:21;;;;;;;310.50;138.90;;;2.40;99.90;;;;;;5112398;28;20438;-52
2022/01/26 10:03:49;;;;;;;296.50;132.98;;;2.40;99.90;;;;;;5109498;28;20068;-52
2022/01/26 10:06:27;;;;;;;253.15;120.10;;;2.40;99.90;;;;;;5115284;28;20075;-53
2022/01/26 10:09:26;;;;;;;278.13;127.32;;;2.40;99.90;;;;;;5109617;28;20465;-53
2022/01/26 10:17:29;;;;;;;289.10;129.52;;;2.50;99.90;;;;;;5114979;28;20036;-52
2022/01/26 10:20:03;;;;;;;347.17;153.68;;;2.50;99.90;;;;;;5114914;28;20051;-52
2022/01/26 10:22:31;;;;;;;336.20;147.18;;;2.40;99.90;;;;;;5114535;28;20377;-52
2022/01/26 10:25:06;;;;;;;318.63;141.65;;;2.40;99.90;;;;;;5113732;28;20480;-52
2022/01/26 10:27:40;;;;;;;317.52;137.43;;;2.50;99.90;;;;;;5111977;28;20020;-52
2022/01/26 10:30:09;;;;;;;320.75;139.82;;;2.50;99.90;;;;;;5114092;28;20449;-52
2022/01/26 10:32:36;;;;;;;324.60;138.95;;;2.50;99.90;;;;;;5113961;28;20378;-53
2022/01/26 10:35:05;;;;;;;324.20;137.13;;;2.60;99.90;;;;;;5114265;28;20019;-53
2022/01/26 10:37:32;;;;;;;317.02;134.45;;;2.60;99.90;;;;;;5114677;28;20031;-53
2022/01/26 10:40:16;;;;;;;330.65;139.75;;;2.70;99.90;;;;;;5114534;28;20050;-53
2022/01/26 10:43:10;;;;;;;361.67;146.98;;;2.70;99.90;;;;;;5114377;28;20055;-53
2022/01/26 10:48:42;;;;;;;319.92;138.23;;;2.60;99.90;;;;;;5114644;28;20080;-53
2022/01/26 10:53:51;;;;;;;318.70;140.50;;;2.70;99.90;;;;;;5114291;28;20051;-53
2022/01/26 10:56:16;;;;;;;;;;;2.70;99.90;;;;;;5111268;28;20019;-52
2022/01/26 10:58:46;;;;;;;347.02;139.77;;;2.70;99.90;;;;;;5111788;28;19915;-52
2022/01/26 11:01:13;;;;;;;314.37;135.57;;;2.80;99.90;;;;;;5111125;28;20019;-53
2022/01/26 11:03:39;;;;;;;302.80;133.73;;;2.80;99.90;;;;;;5103824;28;20093;-53
2022/01/26 11:06:07;;;;;;;290.92;125.20;;;2.80;99.90;;;;;;5100884;28;20461;-53
2022/01/26 11:08:39;;;;;;;295.50;125.32;;;2.70;99.90;;;;;;5102704;28;20024;-53
2022/01/26 11:11:05;;;;;;;292.25;123.68;;;2.80;99.90;;;;;;5114284;28;20023;-52
2022/01/26 11:13:39;;;;;;;276.70;122.15;;;2.90;99.90;;;;;;5109129;28;20030;-52
2022/01/26 11:16:09;;;;;;;279.55;125.88;;;2.80;99.90;;;;;;5098691;28;20477;-52
2022/01/26 11:18:58;;;;;;;281.60;122.05;;;2.90;99.90;;;;;;5105154;28;20383;-52
2022/01/26 11:21:31;;;;;;;272.70;122.63;;;2.90;99.90;;;;;;5098315;28;20384;-52
2022/01/26 11:24:15;;;;;;;245.23;111.97;;;3.00;99.90;;;;;;5098374;28;20431;-52
2022/01/26 11:26:44;;;;;;;274.98;121.20;;;3.00;99.90;;;;;;5109407;28;20028;-52
2022/01/26 11:29:22;;;;;;;287.73;121.03;;;3.00;99.90;;;;;;5097649;28;20024;-52
2022/01/26 11:32:01;;;;;;;256.60;111.30;;;3.00;99.90;;;;;;5104908;28;20023;-53
2022/01/26 11:34:29;;;;;;;283.23;117.07;;;3.10;99.90;;;;;;5105896;28;20023;-52
2022/01/26 11:36:59;;;;;;;279.88;117.40;;;3.10;99.90;;;;;;5113079;28;20031;-52
2022/01/26 11:45:15;;;;;;;251.20;110.13;;;3.00;99.90;;;;;;5088152;28;20039;-52
2022/01/26 11:48:20;;;;;;;234.27;107.93;;;3.10;99.90;;;;;;5117294;27;20398;-52
2022/01/26 11:51:00;;;;;;;223.85;96.88;;;3.20;99.90;;;;;;5110901;27;20048;-52
2022/01/26 11:53:28;;;;;;;215.02;97.60;;;3.20;99.90;;;;;;5116773;28;20039;-53
2022/01/26 11:56:08;;;;;;;218.73;94.15;;;3.40;99.90;;;;;;5102748;27;20039;-52
2022/01/26 11:58:43;;;;;;;201.70;84.40;;;3.30;99.90;;;;;;5107209;28;20032;-52
2022/01/26 12:01:16;;;;;;;145.95;66.75;;;3.20;99.90;;;;;;5117907;28;20090;-52
2022/01/26 12:04:06;;;;;;;148.60;69.13;;;3.20;99.90;;;;;;5117822;28;20065;-52
2022/01/26 12:06:41;;;;;;;173.32;71.78;;;3.20;99.90;;;;;;5115327;28;20028;-52
2022/01/26 12:09:11;;;;;;;166.02;75.20;;;3.30;99.90;;;;;;5115176;28;20106;-52
2022/01/26 12:11:37;;;;;;;181.48;73.47;;;3.30;99.90;;;;;;5115280;28;20391;-52
2022/01/26 12:14:11;;;;;;;149.07;66.95;;;3.30;99.90;;;;;;5115133;28;20411;-52
2022/01/26 12:16:45;;;;;;;155.02;74.30;;;3.30;99.90;;;;;;5115132;28;20050;-52
2022/01/26 12:38:14;;;;;;;202.35;85.47;;;3.40;99.90;;;;;;5109633;28;20054;-52
2022/01/26 12:43:35;;;;;;;160.80;69.38;;;3.40;99.90;;;;;;5112521;28;20026;-53
2022/01/26 12:46:03;;;;;;;179.55;76.28;;;3.40;99.90;;;;;;5116033;28;20024;-52
2022/01/26 12:48:30;;;;;;;216.95;91.75;;;3.40;99.90;;;;;;5114874;28;20050;-53
2022/01/26 12:50:58;;;;;;;188.18;75.70;;;3.40;99.90;;;;;;5112894;28;20043;-53
2022/01/26 12:53:26;;;;;;;161.65;70.80;;;3.40;99.90;;;;;;5117478;28;20105;-53
2022/01/26 12:56:00;;;;;;;157.65;67.18;;;3.40;99.90;;;;;;5116779;28;20062;-53
2022/01/26 12:58:28;;;;;;;144.20;66.93;;;3.50;99.90;;;;;;5116501;28;20084;-53
2022/01/26 13:01:00;;;;;;;149.07;64.88;;;3.40;99.90;;;;;;5116688;27;20063;-52
2022/01/26 13:03:31;;;;;;;162.35;67.72;;;3.40;99.90;;;;;;5116372;28;20465;-52
2022/01/26 13:06:06;;;;;;;157.35;65.28;;;3.40;99.90;;;;;;5115975;28;20024;-53
2022/01/26 13:08:51;;;;;;;146.45;63.95;;;3.40;99.90;;;;;;5116309;28;20032;-53
2022/01/26 13:11:28;;;;;;;135.05;57.25;;;3.50;99.90;;;;;;5115457;28;20114;-53
2022/01/26 13:14:18;;;;;;;143.75;57.75;;;3.40;99.90;;;;;;5112604;28;20027;-52
2022/01/26 13:17:09;;;;;;;124.40;56.90;;;3.40;99.90;;;;;;5110770;28;20031;-52
2022/01/26 13:28:34;;;;;;;91.45;43.92;;;3.40;99.90;;;;;;5113752;28;20035;-53
2022/01/26 13:50:20;;;;;;;114.72;50.85;;;3.50;99.90;;;;;;5115510;28;20067;-53
2022/01/26 13:58:44;;;;;;;118.43;55.63;;;3.40;99.90;;;;;;5115172;28;20023;-52
2022/01/26 14:01:20;;;;;;;120.43;49.53;;;3.40;99.90;;;;;;5115012;28;20035;-53
2022/01/26 14:03:54;;;;;;;107.10;46.88;;;3.40;99.90;;;;;;5115648;28;20131;-53
2022/01/26 14:06:20;;;;;;;107.10;48.67;;;3.50;99.90;;;;;;5114826;28;20045;-53
2022/01/26 14:08:46;;;;;;;109.28;52.25;;;3.40;99.90;;;;;;5115632;27;20039;-53
2022/01/26 14:11:12;;;;;;;109.75;50.25;;;3.50;99.90;;;;;;5115824;28;20028;-53
2022/01/26 14:13:38;;;;;;;117.05;49.90;;;3.50;99.90;;;;;;5115725;28;20111;-52
2022/01/26 14:16:08;;;;;;;121.22;55.28;;;3.40;99.90;;;;;;5115136;28;20063;-53
2022/01/26 14:18:45;;;;;;;113.50;49.42;;;3.50;99.90;;;;;;5114955;28;20032;-53
2022/01/26 14:21:32;;;;;;;92.47;48.92;;;3.50;99.90;;;;;;5114582;28;20097;-53
2022/01/26 14:24:12;;;;;;;89.93;46.03;;;3.50;99.90;;;;;;5114754;28;20035;-52
2022/01/26 14:26:42;;;;;;;141.73;53.50;;;3.50;99.90;;;;;;5114924;28;20047;-53
2022/01/26 14:29:19;;;;;;;125.72;54.65;;;3.40;99.90;;;;;;5115085;28;20031;-53
2022/01/26 14:32:03;;;;;;;116.22;54.05;;;3.30;99.90;;;;;;5115057;28;20072;-53
2022/01/26 14:40:33;;;;;;;154.68;65.07;;;3.30;99.90;;;;;;5114764;28;20032;-52
2022/01/26 14:56:16;;;;;;;191.93;87.28;;;3.10;99.90;;;;;;5114841;28;20061;-52
2022/01/26 15:40:06;;;;;;;157.27;77.90;;;2.90;99.90;;;;;;5118172;28;20077;-52
2022/01/26 15:42:46;;;;;;;152.48;77.05;;;2.70;99.90;;;;;;5118010;28;20058;-52
2022/01/26 15:50:49;;;;;;;185.45;84.72;;;2.60;99.90;;;;;;5117937;28;20416;-52
2022/01/26 15:59:02;;;;;;;154.15;71.22;;;2.50;99.90;;;;;;5117871;28;20036;-52
2022/01/26 16:06:58;;;;;;;145.90;70.15;;;2.30;99.90;;;;;;5117831;28;20028;-52
2022/01/26 17:55:06;;;;;;;97.05;46.97;;;2.00;99.90;;;;;;5115731;28;20024;-52
2022/01/26 18:17:52;;;;;;;138.25;64.32;;;1.90;99.90;;;;;;5115300;28;20069;-52
2022/01/26 18:39:23;;;;;;;134.88;61.90;;;1.90;99.90;;;;;;5114966;28;20038;-52
2022/01/26 18:50:04;;;;;;;123.72;61.33;;;1.90;99.90;;;;;;5116714;28;20082;-52
2022/01/26 18:52:32;;;;;;;123.55;60.97;;;1.90;99.90;;;;;;5122971;27;20043;-53
2022/01/26 18:55:01;;;;;;;;;;;1.90;99.90;;;;;;5100523;28;20043;-53
2022/01/26 18:57:27;;;;;;;125.68;61.88;;;1.90;99.90;;;;;;5105883;28;20384;-53
2022/01/26 18:59:53;;;;;;;131.68;63.55;;;1.90;99.90;;;;;;5110586;28;20500;-53